Time;durP1;ratioP1;P1;durP2;ratioP2;P2;SDS_P1;SDS_P2;PMS_P1;PMS_P2;Temp;Humidity;BMP_temperature;BMP_pressure;BME280_temperature;BME280_humidity;BME280_pressure;Samples;Min_cycle;Max_cycle;Signal;HPM_P1;HPM_P2
2023/12/31 00:00:56;;;;;;;292.73;164.60;;;3.40;1.00;;;;;;5041885;28;20050;-76
2023/12/31 00:03:29;;;;;;;304.58;173.88;;;3.30;1.00;;;;;;5068275;28;20047;-74
2023/12/31 00:05:57;;;;;;;300.33;170.27;;;3.30;1.00;;;;;;5045519;28;20045;-74
2023/12/31 00:08:27;;;;;;;294.63;166.55;;;3.30;1.00;;;;;;5067871;28;20093;-75
2023/12/31 00:10:56;;;;;;;285.27;160.95;;;3.20;1.00;;;;;;5039348;28;20045;-75
2023/12/31 00:13:24;;;;;;;271.45;155.65;;;3.20;1.00;;;;;;5044463;28;20496;-75
2023/12/31 00:15:58;;;;;;;254.90;142.25;;;3.30;1.00;;;;;;5046737;28;20052;-76
2023/12/31 00:18:25;;;;;;;233.52;136.23;;;3.20;1.00;;;;;;5038842;28;20098;-76
2023/12/31 00:20:53;;;;;;;234.23;135.93;;;3.10;1.00;;;;;;5042104;28;20327;-77
2023/12/31 00:23:23;;;;;;;246.65;138.93;;;3.10;1.00;;;;;;5043883;28;20053;-77
2023/12/31 00:25:54;;;;;;;235.40;134.63;;;3.10;1.00;;;;;;5042263;28;20045;-76
2023/12/31 00:28:24;;;;;;;208.85;116.18;;;3.00;1.00;;;;;;5047001;28;20052;-78
2023/12/31 00:31:00;;;;;;;213.13;120.70;;;3.10;1.00;;;;;;5059823;28;20532;-77
2023/12/31 00:33:28;;;;;;;262.00;142.50;;;3.10;1.00;;;;;;5063608;28;20112;-77
2023/12/31 00:36:01;;;;;;;261.77;144.43;;;3.10;1.00;;;;;;5054269;28;20057;-76
2023/12/31 00:38:31;;;;;;;266.73;142.77;;;3.10;1.00;;;;;;5042635;28;20044;-75
2023/12/31 00:40:59;;;;;;;283.58;153.02;;;3.10;1.00;;;;;;5048204;28;20136;-76
2023/12/31 00:43:28;;;;;;;268.45;146.23;;;3.00;1.00;;;;;;5070973;28;20120;-77
2023/12/31 00:45:59;;;;;;;260.25;142.82;;;3.00;1.00;;;;;;5062094;28;20050;-76
2023/12/31 00:48:30;;;;;;;236.05;127.72;;;3.00;1.00;;;;;;5043559;28;20056;-74
2023/12/31 00:51:03;;;;;;;250.43;136.82;;;3.00;1.00;;;;;;5054752;28;20037;-76
2023/12/31 00:53:35;;;;;;;260.90;143.23;;;3.00;1.00;;;;;;5043408;28;20041;-76
2023/12/31 00:56:05;;;;;;;246.80;138.23;;;2.90;1.00;;;;;;5056297;28;20037;-76
2023/12/31 00:58:34;;;;;;;220.07;126.72;;;2.80;1.00;;;;;;5053930;28;20088;-75
2023/12/31 01:01:07;;;;;;;185.50;109.50;;;2.80;1.00;;;;;;5056014;28;20049;-75
2023/12/31 01:03:35;;;;;;;173.85;99.85;;;2.90;30.10;;;;;;5051913;28;20059;-76
2023/12/31 01:06:12;;;;;;;151.63;93.32;;;2.90;27.10;;;;;;5064390;28;20049;-74
2023/12/31 01:08:51;;;;;;;155.80;92.10;;;2.80;1.00;;;;;;5059967;28;20041;-75
2023/12/31 01:11:20;;;;;;;169.20;101.85;;;2.80;1.00;;;;;;5042812;28;20068;-77
2023/12/31 01:13:48;;;;;;;173.00;100.57;;;2.70;75.60;;;;;;5044026;28;20107;-73
2023/12/31 01:16:25;;;;;;;180.65;103.15;;;2.80;57.80;;;;;;5041355;28;20064;-74
2023/12/31 01:18:56;;;;;;;168.88;100.00;;;2.90;21.90;;;;;;5042312;28;20037;-75
2023/12/31 01:21:24;;;;;;;155.43;91.95;;;2.80;1.00;;;;;;5044040;28;20095;-75
2023/12/31 01:23:57;;;;;;;137.70;84.38;;;2.70;1.00;;;;;;5047244;28;20034;-75
2023/12/31 01:26:31;;;;;;;171.05;100.63;;;2.70;1.00;;;;;;5050986;28;20049;-75
2023/12/31 01:29:00;;;;;;;203.65;116.15;;;2.70;80.90;;;;;;5070729;28;20064;-75
2023/12/31 01:31:36;;;;;;;193.13;112.28;;;2.60;34.70;;;;;;5050770;28;20076;-75
2023/12/31 01:34:06;;;;;;;198.55;112.30;;;2.60;1.00;;;;;;5045881;28;20041;-76
2023/12/31 01:36:41;;;;;;;208.43;119.53;;;2.60;1.00;;;;;;5047226;28;20219;-75
2023/12/31 01:39:12;;;;;;;215.65;119.75;;;2.60;6.50;;;;;;5050728;28;20396;-74
2023/12/31 01:41:40;;;;;;;199.15;111.88;;;2.60;44.40;;;;;;5056337;28;20064;-76
2023/12/31 01:44:08;;;;;;;170.48;97.30;;;2.60;1.00;;;;;;5045999;28;20045;-75
2023/12/31 01:46:59;;;;;;;169.57;96.38;;;2.60;3.80;;;;;;5037381;28;20057;-74
2023/12/31 01:49:33;;;;;;;177.18;99.50;;;2.50;1.00;;;;;;5046784;28;20045;-74
2023/12/31 01:52:18;;;;;;;173.38;94.97;;;2.60;17.20;;;;;;5042466;28;20175;-76
2023/12/31 01:54:50;;;;;;;177.27;94.00;;;2.50;6.10;;;;;;5063640;28;20429;-75
2023/12/31 01:57:29;;;;;;;167.05;88.60;;;2.60;9.60;;;;;;5051637;28;20049;-74
2023/12/31 02:00:04;;;;;;;150.85;85.93;;;2.50;1.00;;;;;;5041247;28;20132;-75
2023/12/31 02:02:48;;;;;;;152.80;90.55;;;2.50;43.30;;;;;;5046099;28;20059;-76
2023/12/31 02:05:23;;;;;;;161.52;93.20;;;2.50;89.10;;;;;;5062468;28;20049;-75
2023/12/31 02:07:54;;;;;;;146.18;90.32;;;2.60;50.20;;;;;;5047832;28;20528;-74
2023/12/31 02:10:22;;;;;;;156.77;93.28;;;2.50;1.00;;;;;;5047623;28;20041;-75
2023/12/31 02:12:54;;;;;;;146.40;84.90;;;2.40;1.00;;;;;;5045407;28;20123;-75
2023/12/31 02:15:32;;;;;;;136.38;82.28;;;2.30;1.00;;;;;;5052506;28;20054;-74
2023/12/31 02:18:05;;;;;;;146.13;86.18;;;2.30;28.20;;;;;;5052232;28;20072;-74
2023/12/31 02:20:36;;;;;;;143.00;82.03;;;2.20;96.60;;;;;;5068126;28;20028;-74
2023/12/31 02:23:11;;;;;;;130.68;77.95;;;2.20;99.90;;;;;;5083703;28;20049;-75
2023/12/31 02:25:41;;;;;;;132.25;75.85;;;2.30;99.90;;;;;;5045198;28;20052;-73
2023/12/31 02:28:13;;;;;;;132.98;74.38;;;2.30;99.90;;;;;;5037091;28;20061;-74
2023/12/31 02:30:44;;;;;;;146.27;76.55;;;2.40;99.90;;;;;;5024269;28;20394;-74
2023/12/31 02:33:12;;;;;;;137.85;76.25;;;2.40;99.90;;;;;;5024130;28;20091;-76
2023/12/31 02:35:47;;;;;;;128.85;70.40;;;2.30;99.90;;;;;;5022719;28;20286;-73
2023/12/31 02:38:17;;;;;;;130.23;71.88;;;2.30;99.90;;;;;;5037338;28;20068;-74
2023/12/31 02:40:49;;;;;;;151.82;70.50;;;2.30;99.90;;;;;;5040026;28;20042;-75
2023/12/31 02:43:23;;;;;;;;;;;2.30;99.90;;;;;;5045943;28;20046;-74
2023/12/31 02:45:51;;;;;;;161.30;80.55;;;2.30;99.90;;;;;;5036688;28;19921;-74
2023/12/31 02:48:31;;;;;;;159.77;81.22;;;2.30;99.90;;;;;;5044631;28;20030;-75
2023/12/31 02:50:59;;;;;;;159.85;80.68;;;2.30;99.90;;;;;;5044181;28;20057;-74
2023/12/31 02:53:31;;;;;;;150.13;78.32;;;2.30;99.90;;;;;;5044636;28;20572;-76
2023/12/31 02:56:02;;;;;;;137.50;75.03;;;2.30;99.90;;;;;;5043887;28;20041;-75
2023/12/31 02:58:32;;;;;;;128.43;69.78;;;2.30;99.90;;;;;;5035030;28;20045;-75
2023/12/31 03:01:04;;;;;;;122.68;66.80;;;2.30;99.90;;;;;;5039354;28;20042;-79
2023/12/31 03:03:35;;;;;;;125.47;67.97;;;2.30;99.90;;;;;;5033493;28;20050;-77
2023/12/31 03:06:03;;;;;;;118.93;67.70;;;2.30;99.90;;;;;;5032608;28;20045;-76
2023/12/31 03:08:34;;;;;;;121.88;68.80;;;2.20;99.90;;;;;;5027120;28;20042;-76
2023/12/31 03:11:04;;;;;;;119.05;66.88;;;2.10;99.90;;;;;;5028079;28;20057;-75
2023/12/31 03:13:33;;;;;;;113.70;63.95;;;2.10;99.90;;;;;;5029051;28;20132;-76
2023/12/31 03:16:06;;;;;;;106.53;61.80;;;2.20;99.90;;;;;;5021613;28;20073;-76
2023/12/31 03:18:47;;;;;;;117.60;65.43;;;2.20;99.90;;;;;;5019665;28;20502;-74
2023/12/31 03:21:16;;;;;;;124.32;67.05;;;2.30;99.90;;;;;;5027745;28;20042;-75
2023/12/31 03:23:47;;;;;;;137.13;69.88;;;2.20;99.90;;;;;;5026603;28;20111;-75
2023/12/31 03:26:28;;;;;;;113.55;60.47;;;2.20;99.90;;;;;;5018978;28;20053;-77
2023/12/31 03:28:58;;;;;;;105.13;59.35;;;2.20;99.90;;;;;;5022433;28;20477;-74
2023/12/31 03:31:51;;;;;;;115.55;62.03;;;2.20;99.90;;;;;;5037514;28;20049;-75
2023/12/31 03:34:21;;;;;;;104.70;56.67;;;2.20;99.90;;;;;;5019449;28;20537;-76
2023/12/31 03:36:52;;;;;;;115.45;58.85;;;2.20;99.90;;;;;;5033599;28;20049;-76
2023/12/31 03:39:24;;;;;;;113.85;60.83;;;2.10;99.90;;;;;;5053069;28;20335;-74
2023/12/31 03:41:56;;;;;;;114.80;62.03;;;2.20;99.90;;;;;;5018070;28;20076;-74
2023/12/31 03:44:30;;;;;;;123.93;66.30;;;2.10;99.90;;;;;;5019744;28;20490;-75
2023/12/31 03:47:01;;;;;;;113.28;64.60;;;2.10;99.90;;;;;;5023072;28;20239;-76
2023/12/31 03:49:35;;;;;;;135.65;74.15;;;2.00;99.90;;;;;;5022701;28;20044;-76
2023/12/31 03:52:10;;;;;;;146.18;72.78;;;2.00;99.90;;;;;;5018924;28;20265;-77
2023/12/31 03:54:41;;;;;;;148.88;70.75;;;1.90;99.90;;;;;;5039371;28;20050;-75
2023/12/31 03:57:09;;;;;;;146.30;66.38;;;1.90;99.90;;;;;;5043380;28;20047;-74
2023/12/31 03:59:40;;;;;;;137.40;65.82;;;1.90;99.90;;;;;;5038122;28;20049;-75
2023/12/31 04:02:10;;;;;;;137.32;66.28;;;2.00;99.90;;;;;;5033267;28;20077;-75
2023/12/31 04:04:40;;;;;;;129.45;62.30;;;2.00;99.90;;;;;;5033037;28;20048;-76
2023/12/31 04:07:11;;;;;;;121.75;69.30;;;2.00;99.90;;;;;;5041852;28;20046;-75
2023/12/31 04:09:40;;;;;;;125.85;66.22;;;2.00;99.90;;;;;;5057595;28;20047;-76
2023/12/31 04:12:08;;;;;;;130.02;71.50;;;1.90;99.90;;;;;;5048173;28;20065;-75
2023/12/31 04:14:41;;;;;;;121.40;67.82;;;1.80;99.90;;;;;;5048863;28;20146;-75
2023/12/31 04:17:13;;;;;;;112.00;64.30;;;1.80;99.90;;;;;;5040355;28;20042;-75
2023/12/31 04:19:46;;;;;;;114.25;67.13;;;1.90;99.90;;;;;;5044179;28;20074;-76
2023/12/31 04:22:16;;;;;;;105.97;60.30;;;1.90;99.90;;;;;;5042222;28;20048;-76
2023/12/31 04:24:50;;;;;;;102.07;58.05;;;1.90;99.90;;;;;;5028273;28;20280;-75
2023/12/31 04:27:22;;;;;;;104.05;56.72;;;2.00;99.90;;;;;;5025653;28;20049;-75
2023/12/31 04:29:51;;;;;;;105.45;57.30;;;2.00;99.90;;;;;;5026915;28;20052;-75
2023/12/31 04:32:28;;;;;;;108.85;59.53;;;2.00;99.90;;;;;;5025984;28;20050;-73
2023/12/31 04:34:56;;;;;;;101.43;54.95;;;2.00;99.90;;;;;;5029975;28;20045;-73
2023/12/31 04:37:26;;;;;;;76.15;44.88;;;2.00;99.90;;;;;;5025352;28;20044;-75
2023/12/31 04:39:55;;;;;;;82.85;48.20;;;1.90;99.90;;;;;;5025796;28;20054;-76
2023/12/31 04:42:25;;;;;;;87.35;50.75;;;2.00;99.90;;;;;;5027336;28;20506;-78
2023/12/31 04:45:07;;;;;;;106.30;58.38;;;1.90;99.90;;;;;;5020635;28;20397;-75
2023/12/31 04:47:40;;;;;;;99.35;58.72;;;1.90;99.90;;;;;;5016749;28;20049;-74
2023/12/31 04:50:11;;;;;;;106.85;58.05;;;1.80;99.90;;;;;;5021568;28;20100;-74
2023/12/31 04:52:43;;;;;;;97.85;54.10;;;1.80;99.90;;;;;;5021836;28;20136;-74
2023/12/31 04:55:11;;;;;;;91.15;53.25;;;1.80;99.90;;;;;;5022610;28;20100;-74
2023/12/31 04:57:40;;;;;;;102.80;57.40;;;1.90;99.90;;;;;;5024396;28;20052;-73
2023/12/31 05:00:15;;;;;;;99.30;56.97;;;2.00;99.90;;;;;;5022821;28;20040;-74
2023/12/31 05:02:44;;;;;;;105.07;58.00;;;1.90;99.90;;;;;;5023493;28;20123;-73
2023/12/31 05:05:13;;;;;;;97.80;59.42;;;1.90;99.90;;;;;;5020800;28;20041;-77
2023/12/31 05:07:41;;;;;;;101.75;57.88;;;1.80;99.90;;;;;;5022851;28;20049;-76
2023/12/31 05:10:09;;;;;;;104.18;59.28;;;1.90;99.90;;;;;;5038804;28;20053;-75
2023/12/31 05:12:39;;;;;;;119.15;63.42;;;1.80;99.90;;;;;;5038500;28;20041;-74
2023/12/31 05:15:07;;;;;;;121.85;65.40;;;1.80;99.90;;;;;;5024417;28;20132;-73
2023/12/31 05:17:36;;;;;;;114.57;61.28;;;1.80;99.90;;;;;;5019660;28;20049;-75
2023/12/31 05:20:05;;;;;;;119.38;62.22;;;1.80;99.90;;;;;;5022235;28;20137;-76
2023/12/31 05:22:35;;;;;;;170.88;87.03;;;1.80;99.90;;;;;;5044247;28;20044;-74
2023/12/31 05:25:03;;;;;;;166.23;87.47;;;1.80;99.90;;;;;;5020063;28;20137;-74
2023/12/31 05:27:31;;;;;;;140.80;73.43;;;1.80;99.90;;;;;;5017562;28;20050;-74
2023/12/31 05:29:59;;;;;;;147.63;73.00;;;1.80;99.90;;;;;;5046292;28;20046;-74
2023/12/31 05:32:29;;;;;;;122.93;66.70;;;1.70;99.90;;;;;;5026529;28;20050;-76
2023/12/31 05:35:00;;;;;;;136.70;67.78;;;1.70;99.90;;;;;;5020988;28;20103;-74
2023/12/31 05:37:27;;;;;;;150.20;74.70;;;1.70;99.90;;;;;;5023926;28;20068;-74
2023/12/31 05:39:58;;;;;;;128.55;66.47;;;1.80;99.90;;;;;;5038577;28;20042;-74
2023/12/31 05:42:31;;;;;;;121.30;62.53;;;1.80;99.90;;;;;;5020759;28;20045;-74
2023/12/31 05:44:59;;;;;;;118.00;61.33;;;1.80;99.90;;;;;;5034576;28;20069;-74
2023/12/31 05:47:26;;;;;;;115.10;60.03;;;1.80;99.90;;;;;;5043401;28;20046;-75
2023/12/31 05:49:54;;;;;;;98.00;56.00;;;1.80;99.90;;;;;;5019231;28;20107;-76
2023/12/31 05:52:23;;;;;;;101.50;54.75;;;1.70;99.90;;;;;;5040288;28;20045;-76
2023/12/31 05:54:52;;;;;;;120.18;57.72;;;1.60;99.90;;;;;;5045174;28;20085;-76
2023/12/31 05:57:21;;;;;;;117.75;62.70;;;1.70;99.90;;;;;;5033236;28;20465;-74
2023/12/31 05:59:49;;;;;;;131.60;71.40;;;1.60;99.90;;;;;;5022000;28;20069;-76
2023/12/31 06:02:18;;;;;;;125.70;72.18;;;1.60;99.90;;;;;;5040482;28;20136;-74
2023/12/31 06:04:49;;;;;;;139.30;72.18;;;1.60;99.90;;;;;;5021789;28;20132;-74
2023/12/31 06:07:16;;;;;;;134.38;69.28;;;1.60;99.90;;;;;;5025265;28;20050;-75
2023/12/31 06:09:48;;;;;;;114.05;64.15;;;1.60;99.90;;;;;;5022981;28;20100;-76
2023/12/31 06:12:15;;;;;;;133.13;66.65;;;1.60;99.90;;;;;;5021794;28;20046;-76
2023/12/31 06:14:44;;;;;;;123.40;62.58;;;1.60;99.90;;;;;;5022400;28;20652;-75
2023/12/31 06:17:12;;;;;;;124.00;61.22;;;1.70;99.90;;;;;;5022081;28;20056;-76
2023/12/31 06:19:40;;;;;;;113.75;59.25;;;1.70;99.90;;;;;;5023184;28;20401;-77
2023/12/31 06:22:08;;;;;;;101.95;56.38;;;1.70;99.90;;;;;;5031816;28;20050;-77
2023/12/31 06:24:36;;;;;;;106.70;57.47;;;1.70;99.90;;;;;;5029470;28;20050;-76
2023/12/31 06:27:07;;;;;;;112.40;61.22;;;1.70;99.90;;;;;;5024768;28;20077;-75
2023/12/31 06:29:37;;;;;;;115.78;63.25;;;1.80;99.90;;;;;;5023242;28;20045;-76
2023/12/31 06:32:06;;;;;;;104.15;56.92;;;1.80;99.90;;;;;;5026225;28;20046;-75
2023/12/31 06:34:34;;;;;;;105.28;57.70;;;1.80;99.90;;;;;;5022157;28;20053;-77
2023/12/31 06:37:02;;;;;;;104.57;58.13;;;1.80;99.90;;;;;;5022655;28;20048;-75
2023/12/31 06:39:32;;;;;;;112.78;60.40;;;1.80;99.90;;;;;;5021842;28;20520;-75
2023/12/31 06:42:00;;;;;;;99.25;53.92;;;1.80;99.90;;;;;;5045783;28;20053;-75
2023/12/31 06:44:32;;;;;;;125.70;61.15;;;1.70;99.90;;;;;;5023322;28;20049;-76
2023/12/31 06:47:00;;;;;;;113.65;61.55;;;1.80;99.90;;;;;;5039168;28;20049;-74
2023/12/31 06:49:38;;;;;;;142.10;78.55;;;1.80;99.90;;;;;;5020964;28;20053;-74
2023/12/31 06:52:08;;;;;;;144.07;83.45;;;1.80;99.90;;;;;;5022393;28;20057;-75
2023/12/31 06:54:39;;;;;;;136.68;77.88;;;1.90;99.90;;;;;;5026771;28;20052;-75
2023/12/31 06:57:07;;;;;;;123.53;73.40;;;1.90;99.90;;;;;;5022537;28;20069;-74
2023/12/31 06:59:39;;;;;;;126.75;76.75;;;1.90;99.90;;;;;;5019929;28;20053;-76
2023/12/31 07:02:12;;;;;;;132.38;80.00;;;1.90;99.90;;;;;;5017879;28;20045;-76
2023/12/31 07:04:40;;;;;;;129.88;79.50;;;2.00;99.90;;;;;;5021744;28;20069;-76
2023/12/31 07:07:12;;;;;;;142.70;82.13;;;2.00;99.90;;;;;;5023644;28;20060;-75
2023/12/31 07:09:42;;;;;;;135.75;78.82;;;2.00;99.90;;;;;;5028556;28;20413;-76
2023/12/31 07:12:12;;;;;;;131.00;83.47;;;2.00;96.00;;;;;;5038778;28;20045;-77
2023/12/31 07:14:53;;;;;;;121.50;75.75;;;2.00;94.60;;;;;;5040204;28;20050;-76
2023/12/31 07:17:26;;;;;;;143.45;82.10;;;2.10;37.50;;;;;;5038806;28;20533;-74
2023/12/31 07:19:56;;;;;;;151.57;87.15;;;2.10;45.10;;;;;;5029990;28;20080;-77
2023/12/31 07:22:28;;;;;;;162.63;92.15;;;2.20;24.10;;;;;;5030360;28;20060;-76
2023/12/31 07:24:56;;;;;;;180.15;100.35;;;2.20;44.90;;;;;;5032806;28;20064;-75
2023/12/31 07:27:36;;;;;;;182.15;103.57;;;2.20;31.40;;;;;;5036504;28;20073;-77
2023/12/31 07:30:14;;;;;;;197.32;113.72;;;2.30;24.10;;;;;;5042496;28;20049;-77
2023/12/31 07:32:44;;;;;;;156.48;92.13;;;2.50;85.80;;;;;;5034891;28;20140;-76
2023/12/31 07:35:13;;;;;;;151.00;87.90;;;2.60;1.00;;;;;;5028892;28;20037;-76
2023/12/31 07:37:44;;;;;;;149.82;89.13;;;2.60;1.00;;;;;;5025530;28;20069;-75
2023/12/31 07:40:23;;;;;;;154.65;91.68;;;2.70;1.00;;;;;;5026082;28;20056;-73
2023/12/31 07:42:57;;;;;;;163.82;94.38;;;3.00;1.00;;;;;;5023603;28;20045;-76
2023/12/31 07:45:36;;;;;;;164.60;97.50;;;3.10;1.00;;;;;;5043234;28;20046;-77
2023/12/31 07:48:13;;;;;;;174.65;102.10;;;3.20;99.90;;;;;;5025163;28;20106;-76
2023/12/31 07:50:50;;;;;;;180.77;106.72;;;3.20;99.90;;;;;;5027899;28;20053;-74
2023/12/31 07:53:23;;;;;;;187.35;110.85;;;3.30;1.00;;;;;;5040247;28;20083;-75
2023/12/31 07:55:59;;;;;;;194.07;112.32;;;3.40;1.00;;;;;;5034524;28;20037;-75
2023/12/31 07:58:37;;;;;;;202.43;120.70;;;3.60;1.00;;;;;;5056358;28;20041;-76
2023/12/31 08:03:56;;;;;;;197.77;120.45;;;3.70;1.00;;;;;;5010790;28;20046;-77
2023/12/31 08:06:31;;;;;;;200.82;117.50;;;3.80;99.90;;;;;;5022408;28;20073;-74
2023/12/31 08:09:05;;;;;;;189.40;114.15;;;3.80;1.00;;;;;;5021727;28;20072;-75
2023/12/31 08:11:40;;;;;;;205.40;123.10;;;3.90;1.00;;;;;;5019088;28;20409;-75
2023/12/31 08:14:12;;;;;;;201.55;122.95;;;3.90;1.00;;;;;;5023419;28;20046;-74
2023/12/31 08:16:43;;;;;;;206.68;124.43;;;4.10;1.00;;;;;;5025243;28;20100;-75
2023/12/31 08:19:11;;;;;;;201.30;121.07;;;4.20;1.00;;;;;;5036609;28;20160;-73
2023/12/31 08:21:39;;;;;;;206.80;123.32;;;4.30;99.90;;;;;;5025158;28;20497;-75
2023/12/31 08:24:07;;;;;;;208.27;122.72;;;4.40;99.90;;;;;;5026043;28;20042;-74
2023/12/31 08:26:41;;;;;;;184.50;109.40;;;4.40;24.40;;;;;;5020462;28;20136;-74
2023/12/31 08:29:11;;;;;;;184.20;107.75;;;4.50;99.90;;;;;;5021262;28;20050;-74
2023/12/31 08:31:45;;;;;;;203.32;117.47;;;4.60;99.90;;;;;;5042920;28;20069;-74
2023/12/31 08:34:17;;;;;;;215.55;125.13;;;4.60;99.90;;;;;;5023746;28;20050;-76
2023/12/31 08:36:45;;;;;;;228.55;134.23;;;4.70;1.00;;;;;;5020838;28;20064;-73
2023/12/31 08:39:13;;;;;;;234.85;137.45;;;4.70;1.00;;;;;;5023033;28;20081;-74
2023/12/31 08:41:41;;;;;;;250.27;147.38;;;4.80;1.00;;;;;;5026836;28;20089;-75
2023/12/31 08:44:10;;;;;;;256.05;149.20;;;4.90;1.00;;;;;;5025030;28;20045;-78
2023/12/31 08:47:01;;;;;;;242.27;142.18;;;5.00;13.00;;;;;;5044469;28;20069;-75
2023/12/31 08:49:34;;;;;;;233.85;133.50;;;5.10;99.90;;;;;;5026607;28;20045;-77
2023/12/31 08:52:07;;;;;;;222.02;131.23;;;5.30;99.90;;;;;;5029006;28;20045;-77
2023/12/31 08:54:39;;;;;;;219.07;132.18;;;5.40;50.40;;;;;;5031100;28;20045;-75
2023/12/31 08:57:12;;;;;;;196.83;121.33;;;5.50;1.00;;;;;;5025286;28;20136;-75
2023/12/31 08:59:47;;;;;;;194.15;117.78;;;5.60;1.00;;;;;;5047787;28;20053;-75
2023/12/31 09:02:30;;;;;;;181.73;106.45;;;5.80;1.00;;;;;;5023950;28;20508;-77
2023/12/31 09:05:04;;;;;;;164.15;97.65;;;5.90;1.00;;;;;;5027359;28;20378;-75
2023/12/31 09:07:35;;;;;;;157.15;97.35;;;6.00;99.90;;;;;;5025082;28;20432;-76
2023/12/31 09:10:07;;;;;;;176.60;100.72;;;6.20;99.90;;;;;;5038205;28;20065;-76
2023/12/31 09:12:39;;;;;;;178.27;105.50;;;6.40;1.00;;;;;;5023325;28;20049;-74
2023/12/31 09:15:16;;;;;;;189.90;113.25;;;6.50;1.00;;;;;;5021689;28;20093;-75
2023/12/31 09:17:50;;;;;;;185.90;112.40;;;6.60;1.00;;;;;;5021928;28;20072;-75
2023/12/31 09:20:25;;;;;;;189.10;114.72;;;6.70;99.90;;;;;;5021173;28;20128;-75
2023/12/31 09:23:00;;;;;;;182.95;114.75;;;6.80;1.00;;;;;;5028224;28;20053;-76
2023/12/31 09:25:27;;;;;;;197.47;113.40;;;6.90;1.00;;;;;;5023297;28;20065;-74
2023/12/31 09:27:56;;;;;;;194.52;116.95;;;7.00;1.00;;;;;;5026139;28;20148;-76
2023/12/31 09:30:29;;;;;;;190.10;117.38;;;7.10;1.00;;;;;;5050366;28;20041;-76
2023/12/31 09:33:01;;;;;;;192.60;117.40;;;7.20;1.00;;;;;;5028176;28;20046;-76
2023/12/31 09:35:34;;;;;;;194.38;119.50;;;7.30;99.90;;;;;;5025087;28;20050;-77
2023/12/31 09:38:04;;;;;;;191.13;119.18;;;7.40;98.10;;;;;;5029608;28;20111;-77
2023/12/31 09:40:46;;;;;;;189.05;118.65;;;7.50;1.00;;;;;;5037253;28;20047;-76
2023/12/31 09:43:30;;;;;;;;;;;;;;;;;;;;;
2023/12/31 09:45:58;;;;;;;188.07;115.38;;;7.70;1.00;;;;;;5058078;28;20207;-75
2023/12/31 09:48:32;;;;;;;177.07;111.95;;;7.90;1.00;;;;;;5031035;28;20108;-76
2023/12/31 09:51:05;;;;;;;183.95;113.15;;;8.10;1.00;;;;;;5024229;28;20053;-76
2023/12/31 09:53:45;;;;;;;175.55;110.88;;;8.20;99.90;;;;;;5021483;28;20042;-76
2023/12/31 09:56:17;;;;;;;174.38;107.45;;;8.30;99.90;;;;;;5024375;28;20049;-76
2023/12/31 09:58:52;;;;;;;167.70;104.32;;;8.50;1.00;;;;;;5024600;28;20049;-76
2023/12/31 10:01:33;;;;;;;151.35;96.75;;;8.60;99.90;;;;;;5027817;28;20055;-75
2023/12/31 10:04:06;;;;;;;150.45;94.50;;;8.70;1.00;;;;;;5025075;28;20128;-78
2023/12/31 10:06:43;;;;;;;147.70;90.57;;;8.90;1.00;;;;;;5024940;28;20037;-77
2023/12/31 10:09:33;;;;;;;136.40;88.88;;;9.10;1.00;;;;;;5031262;28;20107;-78
2023/12/31 10:12:07;;;;;;;149.52;96.53;;;9.20;99.90;;;;;;5059035;28;20057;-80
2023/12/31 10:14:44;;;;;;;128.77;83.38;;;9.40;1.00;;;;;;5025748;28;20046;-78
2023/12/31 10:17:29;;;;;;;134.75;81.68;;;9.50;99.90;;;;;;5034714;28;20102;-76
2023/12/31 10:19:59;;;;;;;116.57;75.07;;;9.60;99.90;;;;;;5033524;28;20512;-77
2023/12/31 10:22:45;;;;;;;99.97;65.13;;;9.80;92.10;;;;;;5058370;28;20113;-76
2023/12/31 10:25:24;;;;;;;110.55;69.60;;;10.00;1.00;;;;;;5044690;28;20042;-78
2023/12/31 10:27:55;;;;;;;109.65;70.32;;;10.10;1.00;;;;;;5039626;28;20056;-77
2023/12/31 10:30:33;;;;;;;110.38;72.07;;;10.20;99.90;;;;;;5007754;28;20064;-77
2023/12/31 10:33:19;;;;;;;115.07;74.22;;;10.30;99.90;;;;;;5046990;28;20064;-77
2023/12/31 10:36:27;;;;;;;114.80;73.47;;;10.30;99.90;;;;;;5024884;28;20054;-78
2023/12/31 10:39:01;;;;;;;110.72;72.85;;;10.40;99.90;;;;;;5017325;28;20095;-76
2023/12/31 10:41:58;;;;;;;111.13;66.85;;;10.60;99.90;;;;;;5024164;28;20433;-76
2023/12/31 10:44:43;;;;;;;92.25;62.25;;;10.70;1.00;;;;;;5020736;28;20046;-76
2023/12/31 10:47:19;;;;;;;92.70;59.17;;;10.80;1.00;;;;;;5021709;28;20556;-76
2023/12/31 10:50:39;;;;;;;87.40;56.55;;;11.00;99.90;;;;;;5021704;28;20071;-76
2023/12/31 10:53:33;;;;;;;82.43;55.10;;;11.10;1.00;;;;;;4984595;28;20129;-76
2023/12/31 10:56:34;;;;;;;76.07;52.65;;;11.20;1.00;;;;;;5024453;28;20163;-80
2023/12/31 10:59:26;;;;;;;79.38;52.33;;;11.30;1.00;;;;;;5037128;28;20141;-76
2023/12/31 11:02:20;;;;;;;97.07;61.95;;;11.40;1.00;;;;;;5026676;28;20042;-78
2023/12/31 11:05:03;;;;;;;100.95;63.83;;;11.60;1.00;;;;;;5023668;28;20049;-75
2023/12/31 11:07:38;;;;;;;76.70;50.40;;;11.70;1.00;;;;;;5026569;28;20463;-75
2023/12/31 11:10:15;;;;;;;77.85;47.38;;;11.90;1.00;;;;;;5022661;28;20050;-77
2023/12/31 11:12:52;;;;;;;62.53;40.20;;;12.10;99.90;;;;;;5027406;28;20439;-76
2023/12/31 11:15:48;;;;;;;54.70;37.75;;;12.20;99.90;;;;;;5020120;28;20386;-77
2023/12/31 11:18:56;;;;;;;45.85;32.00;;;12.20;99.90;;;;;;5027243;28;20052;-76
2023/12/31 11:22:21;;;;;;;46.33;31.67;;;12.30;99.90;;;;;;5031597;28;20087;-77
2023/12/31 11:25:18;;;;;;;;;;;;;;;;;;;;;
2023/12/31 11:44:39;;;;;;;43.08;26.73;;;13.00;1.00;;;;;;4973391;28;20070;-78
2023/12/31 11:47:38;;;;;;;36.60;24.00;;;13.10;1.00;;;;;;5001976;28;20081;-77
2023/12/31 11:50:33;;;;;;;42.15;24.52;;;13.20;1.00;;;;;;5010187;28;20051;-77
2023/12/31 11:53:39;;;;;;;40.63;27.13;;;13.30;1.00;;;;;;5007674;28;20053;-78
2023/12/31 11:56:18;;;;;;;34.83;23.42;;;13.40;1.00;;;;;;4976329;28;20047;-78
2023/12/31 11:59:33;;;;;;;28.55;19.05;;;13.50;1.00;;;;;;4967433;28;20435;-78
2023/12/31 12:05:26;;;;;;;30.50;18.35;;;13.70;1.00;;;;;;5047118;28;20064;-79
2023/12/31 12:08:20;;;;;;;34.40;22.52;;;13.80;1.00;;;;;;5033521;28;20065;-77
2023/12/31 12:11:41;;;;;;;;;;;;;;;;;;;;;
2023/12/31 12:18:34;;;;;;;45.08;29.50;;;13.90;1.00;;;;;;5014491;28;20208;-76
2023/12/31 12:21:40;;;;;;;46.72;27.20;;;13.90;1.00;;;;;;5029625;28;20054;-77
2023/12/31 12:27:28;;;;;;;42.60;28.58;;;13.90;1.00;;;;;;5023648;28;20038;-77
2023/12/31 12:30:07;;;;;;;42.75;28.10;;;13.90;1.00;;;;;;5027253;28;20045;-79
2023/12/31 12:36:24;;;;;;;48.63;31.25;;;13.90;1.00;;;;;;5025306;28;19921;-80
2023/12/31 12:39:31;;;;;;;45.00;29.27;;;13.90;1.00;;;;;;5025938;28;20299;-77
2023/12/31 12:42:12;;;;;;;45.72;28.75;;;14.10;1.00;;;;;;5026375;28;20045;-78
2023/12/31 12:45:17;;;;;;;;;;;;;;;;;;;;;
2023/12/31 12:55:03;;;;;;;51.75;35.33;;;14.20;1.00;;;;;;5042958;28;20045;-78
2023/12/31 12:58:26;;;;;;;57.10;38.45;;;14.20;1.00;;;;;;5043131;28;20034;-78
2023/12/31 13:01:26;;;;;;;63.97;39.60;;;14.20;1.00;;;;;;5026682;28;20045;-80
2023/12/31 13:11:32;;;;;;;64.25;42.28;;;14.30;1.00;;;;;;5023787;28;20041;-77
2023/12/31 13:15:10;;;;;;;58.30;37.60;;;14.30;1.00;;;;;;5027713;28;20076;-77
2023/12/31 13:23:08;;;;;;;82.90;55.17;;;14.20;1.00;;;;;;4966479;29;20185;-77
2023/12/31 13:53:36;;;;;;;63.60;43.25;;;14.10;1.00;;;;;;4847357;29;20033;-78
2023/12/31 14:18:05;;;;;;;;;;;;;;;;;;;;;
2023/12/31 14:24:12;;;;;;;148.60;98.32;;;13.70;1.00;;;;;;4898175;29;20053;-76
2023/12/31 14:31:39;;;;;;;155.70;100.60;;;13.60;1.00;;;;;;4911609;28;20084;-76
2023/12/31 14:34:54;;;;;;;163.65;103.70;;;13.50;1.00;;;;;;5003769;28;20106;-78
2023/12/31 14:38:15;;;;;;;154.93;101.63;;;13.20;1.00;;;;;;4935677;29;20074;-77
2023/12/31 14:45:09;;;;;;;213.55;126.68;;;12.90;1.00;;;;;;4950808;28;20075;-78
2023/12/31 14:58:03;;;;;;;266.33;147.50;;;12.00;77.40;;;;;;4938149;28;20070;-76
2023/12/31 15:07:34;;;;;;;218.02;134.43;;;11.70;99.90;;;;;;4903116;28;20459;-77
2023/12/31 15:13:46;;;;;;;146.90;97.85;;;11.60;99.90;;;;;;4929529;29;20060;-77
2023/12/31 15:16:45;;;;;;;148.13;98.70;;;11.60;99.90;;;;;;4904306;29;20055;-78
2023/12/31 15:19:30;;;;;;;;;;;;;;;;;;;;;
2023/12/31 15:21:59;;;;;;;161.27;106.88;;;11.30;99.90;;;;;;4992564;28;20102;-76
2023/12/31 15:24:46;;;;;;;208.68;141.25;;;11.10;99.90;;;;;;4981654;28;20047;-77
2023/12/31 15:27:18;;;;;;;299.45;202.82;;;10.90;1.00;;;;;;4999157;28;20045;-76
2023/12/31 15:30:17;;;;;;;298.47;198.13;;;10.70;1.00;;;;;;5037280;28;20046;-76
2023/12/31 15:32:55;;;;;;;301.23;203.57;;;10.40;1.00;;;;;;5054352;28;20045;-77
2023/12/31 15:35:50;;;;;;;;;;;;;;;;;;;;;